Time;durP1;ratioP1;P1;durP2;ratioP2;P2;SDS_P1;SDS_P2;PMS_P1;PMS_P2;Temp;Humidity;BMP_temperature;BMP_pressure;BME280_temperature;BME280_humidity;BME280_pressure;Samples;Min_cycle;Max_cycle;Signal;HPM_P1;HPM_P2
2022/05/29 00:00:51;;;;;;;0.82;0.40;;;;;;;11.28;64.96;101967.47;5014618;28;97495;-34
2022/05/29 00:03:17;;;;;;;5.00;0.68;;;;;;;11.35;64.99;101977.09;4995914;28;100809;-34
2022/05/29 00:05:44;;;;;;;1.17;0.65;;;;;;;11.33;64.66;101973.56;5013037;28;96442;-33
2022/05/29 00:08:20;;;;;;;0.55;0.38;;;;;;;11.31;65.19;101971.88;4995814;28;96957;-34
2022/05/29 00:10:45;;;;;;;2.25;0.65;;;;;;;11.23;65.64;101962.25;5013843;28;99063;-33
2022/05/29 00:13:13;;;;;;;0.70;0.40;;;;;;;11.18;64.44;101958.88;4995829;28;101467;-33
2022/05/29 00:15:40;;;;;;;5.38;0.60;;;;;;;11.22;65.60;101968.63;5013861;28;96621;-34
2022/05/29 00:18:08;;;;;;;0.45;0.35;;;;;;;11.16;65.38;101954.47;4996052;28;96788;-33
2022/05/29 00:20:35;;;;;;;1.17;0.43;;;;;;;11.22;64.83;101968.63;5013504;28;99656;-33
2022/05/29 00:23:01;;;;;;;2.55;0.60;;;;;;;11.20;65.01;101961.50;4995796;28;101105;-33
2022/05/29 00:25:38;;;;;;;1.55;0.28;;;;;;;11.19;65.79;101963.34;4995619;28;96591;-33
2022/05/29 00:28:04;;;;;;;0.50;0.28;;;;;;;11.12;65.41;101945.59;5013834;28;96778;-33
2022/05/29 00:30:29;;;;;;;1.70;0.30;;;;;;;11.11;65.70;101945.66;5013106;28;99388;-33
2022/05/29 00:32:54;;;;;;;0.93;0.45;;;;;;;11.07;65.30;101944.94;4995399;28;97818;-34
2022/05/29 00:35:20;;;;;;;0.45;0.30;;;;;;;11.10;65.22;101955.63;5013847;28;96514;-34
2022/05/29 00:37:47;;;;;;;0.47;0.32;;;;;;;11.09;65.89;101958.44;5013727;28;96752;-33
2022/05/29 00:40:51;;;;;;;0.43;0.28;;;;;;;11.07;66.36;101953.06;4995503;28;99557;-33
2022/05/29 00:43:17;;;;;;;0.17;0.17;;;;;;;10.99;66.20;101939.00;5012582;28;97894;-33
2022/05/29 00:45:50;;;;;;;0.10;0.03;;;;;;;10.93;65.25;101932.00;5013739;28;96626;-33
2022/05/29 00:48:18;;;;;;;2.72;0.50;;;;;;;10.99;66.07;101949.84;4995859;28;96847;-33
2022/05/29 00:50:46;;;;;;;1.05;0.28;;;;;;;10.93;65.68;101934.72;4995093;28;100854;-34
2022/05/29 00:53:14;;;;;;;0.50;0.38;;;;;;;10.92;65.47;101930.25;4995061;28;100938;-33
2022/05/29 00:55:42;;;;;;;1.00;0.38;;;;;;;10.91;65.93;101931.19;4994744;28;97391;-34
2022/05/29 00:58:08;;;;;;;0.93;0.20;;;;;;;10.89;65.65;101926.78;4995209;28;97286;-33
2022/05/29 01:00:34;;;;;;;1.58;0.65;;;;;;;10.92;65.67;101927.53;4995217;28;100992;-34
2022/05/29 01:03:01;;;;;;;0.98;0.25;;;;;;;10.87;65.86;101920.53;5013026;28;99160;-33
2022/05/29 01:05:30;;;;;;;0.98;0.35;;;;;;;10.81;65.86;101917.19;5009482;28;96672;-33
2022/05/29 01:08:00;;;;;;;2.03;0.65;;;;;;;10.90;65.44;101929.44;5031930;28;96868;-34
2022/05/29 01:10:45;;;;;;;0.40;0.20;;;;;;;10.83;65.60;101908.97;5014720;28;101075;-36
2022/05/29 01:13:16;;;;;;;1.63;0.43;;;;;;;10.87;65.58;101924.16;5031987;28;100951;-35
2022/05/29 01:16:00;;;;;;;0.83;0.20;;;;;;;10.74;65.71;101896.72;5031934;28;96822;-34
2022/05/29 01:18:32;;;;;;;1.15;0.50;;;;;;;10.84;65.72;101916.16;5013795;28;96797;-33
2022/05/29 01:21:29;;;;;;;0.95;0.10;;;;;;;10.81;65.78;101911.75;5032948;28;97434;-34
2022/05/29 01:24:35;;;;;;;2.53;0.85;;;;;;;10.79;65.83;101907.34;5033105;28;97342;-34
2022/05/29 01:27:20;;;;;;;5.25;0.28;;;;;;;10.77;66.01;101901.13;5033317;28;96434;-36
2022/05/29 01:29:57;;;;;;;3.30;0.63;;;;;;;10.74;66.25;101909.41;5031538;28;96788;-34
2022/05/29 01:32:41;;;;;;;1.00;0.32;;;;;;;10.65;66.00;101897.13;5031373;28;100910;-34
2022/05/29 01:35:20;;;;;;;0.47;0.25;;;;;;;10.63;66.35;101893.63;5032617;28;99155;-34
2022/05/29 01:37:50;;;;;;;0.20;0.20;;;;;;;10.63;65.98;101894.50;5031584;28;96579;-35
2022/05/29 01:40:26;;;;;;;2.75;0.52;;;;;;;10.60;66.35;101894.63;5015009;28;96886;-34
2022/05/29 01:43:14;;;;;;;1.77;0.40;;;;;;;10.61;66.40;101887.41;5014302;28;101381;-34
2022/05/29 01:45:54;;;;;;;2.65;0.70;;;;;;;10.58;66.27;101893.84;5014355;28;99632;-34
2022/05/29 01:48:30;;;;;;;0.63;0.32;;;;;;;10.49;66.50;101878.00;5030776;28;97089;-35
2022/05/29 01:51:03;;;;;;;1.35;0.30;;;;;;;10.51;66.22;101884.22;5031279;28;96708;-33
2022/05/29 01:53:41;;;;;;;0.73;0.40;;;;;;;10.45;66.55;101878.19;5014340;28;101572;-35
2022/05/29 01:56:15;;;;;;;6.53;0.45;;;;;;;10.36;66.56;101871.34;5030967;28;100962;-35
2022/05/29 01:58:48;;;;;;;1.23;0.40;;;;;;;10.33;66.49;101871.50;5014355;28;96627;-35
2022/05/29 02:01:15;;;;;;;2.55;0.50;;;;;;;10.28;66.61;101887.03;5032841;28;96512;-35
2022/05/29 02:03:48;;;;;;;7.13;0.50;;;;;;;10.26;66.96;101883.50;5031608;28;99556;-34
2022/05/29 02:06:19;;;;;;;0.63;0.30;;;;;;;10.18;66.79;101867.59;4994532;28;100733;-35
2022/05/29 02:09:11;;;;;;;1.08;0.28;;;;;;;10.16;66.82;101873.06;5012279;28;96593;-35
2022/05/29 02:11:36;;;;;;;1.80;0.28;;;;;;;10.19;66.66;101872.06;4994072;28;96663;-35
2022/05/29 02:14:06;;;;;;;2.05;0.70;;;;;;;10.14;67.19;101863.25;5010667;28;118460;-35
2022/05/29 02:16:35;;;;;;;0.38;0.30;;;;;;;10.24;67.74;101871.88;4993978;28;101732;-35
2022/05/29 02:19:24;;;;;;;3.05;0.45;;;;;;;10.21;67.67;101876.47;5012142;28;96511;-36
2022/05/29 02:21:49;;;;;;;1.98;0.40;;;;;;;10.22;68.68;101877.34;5011999;28;97670;-35
2022/05/29 02:24:29;;;;;;;1.52;0.60;;;;;;;10.18;68.56;101865.78;5011913;28;102391;-35
2022/05/29 02:27:01;;;;;;;0.75;0.30;;;;;;;10.26;68.30;101867.25;4993944;28;100706;-35
2022/05/29 02:29:28;;;;;;;0.45;0.25;;;;;;;10.28;67.56;101859.97;5028232;27;96846;-35
2022/05/29 02:32:11;;;;;;;0.40;0.30;;;;;;;10.34;67.36;101863.28;4997838;28;96909;-35
2022/05/29 02:34:58;;;;;;;0.52;0.38;;;;;;;10.37;67.53;101856.88;4997531;28;101424;-35
2022/05/29 02:37:34;;;;;;;5.72;0.43;;;;;;;10.37;67.58;101849.63;4997431;28;101485;-35
2022/05/29 02:40:02;;;;;;;1.30;0.17;;;;;;;10.41;67.14;101859.34;4996907;28;97193;-35
2022/05/29 02:42:56;;;;;;;0.13;0.05;;;;;;;10.43;67.53;101851.16;5015357;28;96913;-35
2022/05/29 02:45:43;;;;;;;0.77;0.40;;;;;;;10.46;66.67;101856.44;5015587;28;97469;-34
2022/05/29 02:48:26;;;;;;;4.43;0.68;;;;;;;10.48;67.30;101849.13;4997191;28;100886;-35
2022/05/29 02:51:14;;;;;;;0.60;0.32;;;;;;;10.53;66.86;101862.47;4997262;28;96695;-35
2022/05/29 02:53:44;;;;;;;2.60;0.50;;;;;;;10.49;67.53;101842.78;5015688;28;96548;-35
2022/05/29 02:56:10;;;;;;;1.35;0.38;;;;;;;10.55;67.09;101847.03;4996878;28;101235;-35
2022/05/29 02:58:39;;;;;;;0.95;0.47;;;;;;;10.57;67.03;101846.00;4997284;28;101123;-35
2022/05/29 03:01:24;;;;;;;1.60;0.70;;;;;;;10.59;67.52;101841.41;4997011;28;96585;-35
2022/05/29 03:04:14;;;;;;;0.63;0.45;;;;;;;10.63;67.77;101842.16;5014825;28;96827;-35
2022/05/29 03:07:18;;;;;;;0.63;0.30;;;;;;;10.58;68.02;101828.81;5014564;28;97401;-35
2022/05/29 03:10:02;;;;;;;2.65;0.60;;;;;;;10.69;67.00;101838.28;5013526;28;100905;-35
2022/05/29 03:12:34;;;;;;;0.60;0.35;;;;;;;10.69;67.25;101836.44;5015257;28;96892;-34
2022/05/29 03:15:47;;;;;;;2.83;0.40;;;;;;;10.75;66.98;101837.97;5013593;28;96798;-35
2022/05/29 03:18:34;;;;;;;5.22;0.52;;;;;;;10.74;68.15;101841.66;4967891;28;101046;-35
2022/05/29 03:21:29;;;;;;;2.47;0.32;;;;;;;10.74;67.05;101842.53;4997028;28;100443;-35
2022/05/29 03:24:04;;;;;;;0.98;0.40;;;;;;;10.77;66.51;101844.22;4996705;28;96734;-35
2022/05/29 03:26:40;;;;;;;1.17;0.32;;;;;;;10.72;66.86;101838.13;5015329;28;96496;-35
2022/05/29 03:29:27;;;;;;;2.75;0.80;;;;;;;10.69;67.05;101841.00;4996625;28;100880;-35
2022/05/29 03:31:53;;;;;;;3.75;0.70;;;;;;;10.65;66.95;101833.94;5029643;28;97809;-35
2022/05/29 03:34:21;;;;;;;0.63;0.30;;;;;;;10.63;66.85;101831.31;4995970;28;96645;-35
2022/05/29 03:36:49;;;;;;;0.10;0.10;;;;;;;10.67;67.08;101837.47;4996674;28;96827;-35
2022/05/29 03:39:15;;;;;;;2.10;0.38;;;;;;;10.64;67.10;101838.50;4996431;28;101123;-35
2022/05/29 03:41:44;;;;;;;0.47;0.40;;;;;;;10.66;66.75;101836.59;5013227;28;99474;-35
2022/05/29 03:44:11;;;;;;;0.70;0.30;;;;;;;10.64;67.44;101835.78;5014341;28;96600;-34
2022/05/29 03:46:39;;;;;;;2.90;0.20;;;;;;;10.55;66.30;101828.94;4996268;28;96936;-35
2022/05/29 03:49:05;;;;;;;2.47;0.20;;;;;;;10.56;67.46;101836.13;5012861;28;98958;-35
2022/05/29 03:51:30;;;;;;;1.35;0.25;;;;;;;10.63;67.74;101842.16;5014620;28;97914;-35
2022/05/29 03:53:56;;;;;;;1.95;0.22;;;;;;;10.59;67.67;101836.00;5013471;28;121445;-35
2022/05/29 03:56:21;;;;;;;0.00;0.00;;;;;;;10.56;68.06;101835.25;5013514;28;122917;-35
2022/05/29 03:58:46;;;;;;;1.38;0.30;;;;;;;10.52;68.11;101829.09;5013065;28;119730;-35
2022/05/29 04:01:11;;;;;;;1.05;0.17;;;;;;;10.57;69.22;101832.47;5013608;28;99281;-35
2022/05/29 04:03:37;;;;;;;0.03;0.03;;;;;;;10.63;68.09;101825.91;5013778;28;111853;-35
2022/05/29 04:06:02;;;;;;;0.60;0.25;;;;;;;10.68;68.81;101836.50;5013821;28;96955;-35
2022/05/29 04:13:57;;;;;;;0.30;0.20;;;;;;;10.67;68.20;101818.50;5014560;28;96612;-35
2022/05/29 04:16:23;;;;;;;0.10;0.10;;;;;;;10.63;68.34;101805.09;4996205;28;96828;-35
2022/05/29 04:18:48;;;;;;;3.28;0.63;;;;;;;10.74;68.95;101823.56;5012406;28;100023;-35
2022/05/29 04:21:13;;;;;;;1.25;0.35;;;;;;;10.76;68.82;101821.66;5013018;28;126075;-35
2022/05/29 04:23:39;;;;;;;2.75;0.30;;;;;;;10.72;69.12;101800.19;5012447;28;121316;-35
2022/05/29 04:26:04;;;;;;;3.53;0.38;;;;;;;10.69;68.76;101797.63;5014046;28;96799;-35
2022/05/29 04:28:29;;;;;;;0.22;0.10;;;;;;;10.75;69.65;101813.59;5013310;28;99438;-35
2022/05/29 04:30:55;;;;;;;0.10;0.05;;;;;;;10.74;69.58;101818.13;5013593;28;98827;-35
2022/05/29 04:33:22;;;;;;;0.38;0.25;;;;;;;10.81;68.75;101821.44;5013631;28;96642;-35
2022/05/29 04:35:52;;;;;;;1.40;0.45;;;;;;;10.81;70.11;101814.19;5012347;28;96926;-35
2022/05/29 04:38:19;;;;;;;0.45;0.38;;;;;;;10.83;68.75;101811.41;4995498;28;101138;-35
2022/05/29 04:40:45;;;;;;;2.08;0.35;;;;;;;10.85;70.37;101809.50;4995612;28;101414;-35
2022/05/29 04:43:12;;;;;;;0.60;0.30;;;;;;;10.88;69.07;101805.78;5013282;28;107531;-35
2022/05/29 04:45:39;;;;;;;3.47;0.35;;;;;;;10.94;68.87;101819.03;5012152;28;96895;-35
2022/05/29 04:48:06;;;;;;;0.15;0.10;;;;;;;10.92;68.90;101807.41;4994820;28;100912;-35
2022/05/29 04:50:31;;;;;;;2.58;0.50;;;;;;;10.96;68.69;101800.84;4995347;28;101355;-35
2022/05/29 04:52:57;;;;;;;0.88;0.17;;;;;;;10.94;68.59;101791.91;5013249;28;96498;-35
2022/05/29 04:55:22;;;;;;;0.30;0.20;;;;;;;10.95;68.48;101797.28;5013600;28;96778;-35
2022/05/29 04:57:47;;;;;;;0.47;0.20;;;;;;;10.88;69.19;101789.50;5013288;28;107819;-35
2022/05/29 05:00:13;;;;;;;0.15;0.15;;;;;;;10.97;68.69;101808.94;5013199;28;97786;-35
2022/05/29 05:02:39;;;;;;;0.85;0.35;;;;;;;10.91;68.92;101803.78;4995583;28;96630;-35
2022/05/29 05:05:05;;;;;;;0.73;0.40;;;;;;;10.94;68.75;101810.88;5013082;28;96917;-35
2022/05/29 05:07:30;;;;;;;0.88;0.38;;;;;;;10.92;68.95;101800.13;5013097;28;97500;-35
2022/05/29 05:09:56;;;;;;;1.98;0.50;;;;;;;10.91;69.26;101798.38;5012769;28;99138;-35
2022/05/29 05:12:21;;;;;;;1.88;0.40;;;;;;;10.88;69.56;101809.34;5012589;28;96756;-35
2022/05/29 05:14:47;;;;;;;0.50;0.40;;;;;;;10.95;69.54;101815.38;5013166;28;96764;-35
2022/05/29 05:17:12;;;;;;;0.82;0.43;;;;;;;10.86;69.93;101803.13;4994660;28;101369;-35
2022/05/29 05:19:37;;;;;;;1.13;0.50;;;;;;;10.94;70.46;101816.31;5012830;28;99211;-35
2022/05/29 05:22:05;;;;;;;0.50;0.25;;;;;;;10.88;69.46;101793.09;5013185;28;96495;-35
2022/05/29 05:24:33;;;;;;;1.33;0.32;;;;;;;10.95;69.62;101807.25;4994306;28;96940;-35
2022/05/29 05:26:58;;;;;;;0.85;0.30;;;;;;;10.95;68.91;101802.69;5012744;28;97220;-35
2022/05/29 05:29:25;;;;;;;0.30;0.20;;;;;;;11.07;69.09;101805.78;5012953;28;97369;-35
2022/05/29 05:31:51;;;;;;;1.10;0.50;;;;;;;11.15;68.62;101801.72;4994712;28;96632;-35
2022/05/29 05:34:16;;;;;;;0.45;0.30;;;;;;;11.20;68.39;101796.06;5012846;28;96950;-35
2022/05/29 05:36:42;;;;;;;0.17;0.08;;;;;;;11.21;69.28;101795.13;5012266;28;98038;-35
2022/05/29 05:39:07;;;;;;;0.35;0.20;;;;;;;11.21;69.11;101789.72;5012317;28;99249;-35
2022/05/29 05:41:33;;;;;;;4.32;0.50;;;;;;;11.21;69.20;101796.00;5012665;28;96483;-35
2022/05/29 05:43:58;;;;;;;0.85;0.30;;;;;;;11.19;68.39;101789.78;5012666;28;96769;-35
2022/05/29 05:46:23;;;;;;;0.30;0.17;;;;;;;11.15;68.92;101785.44;5012515;28;97908;-35
2022/05/29 05:48:48;;;;;;;1.80;0.63;;;;;;;11.18;69.27;101800.72;5011827;28;118680;-35
2022/05/29 05:51:14;;;;;;;1.02;0.43;;;;;;;11.14;69.03;101802.69;5012159;28;114001;-35
2022/05/29 05:53:40;;;;;;;1.25;0.30;;;;;;;11.04;69.87;101793.25;5012022;28;118149;-35
2022/05/29 05:56:08;;;;;;;0.40;0.20;;;;;;;11.08;69.97;101791.25;5012172;28;99360;-35
2022/05/29 05:58:33;;;;;;;0.15;0.13;;;;;;;11.01;70.78;101791.56;5012117;28;99067;-35
2022/05/29 06:01:03;;;;;;;0.88;0.30;;;;;;;11.08;69.70;101800.25;5012057;28;96636;-35
2022/05/29 06:03:28;;;;;;;2.05;0.30;;;;;;;11.05;69.78;101811.25;4994032;28;97711;-35
2022/05/29 06:05:54;;;;;;;0.30;0.20;;;;;;;11.07;69.43;101808.50;5010676;28;121702;-35
2022/05/29 06:08:20;;;;;;;0.93;0.28;;;;;;;11.04;69.90;101812.22;5012335;28;96645;-35
2022/05/29 06:10:46;;;;;;;0.32;0.20;;;;;;;11.03;69.64;101821.28;4993699;28;109731;-35
2022/05/29 06:13:11;;;;;;;3.22;0.10;;;;;;;10.92;71.03;101820.94;5012081;28;96936;-35
2022/05/29 06:15:36;;;;;;;2.67;0.32;;;;;;;10.79;69.75;101807.94;5012107;28;97494;-35
2022/05/29 06:18:02;;;;;;;3.22;0.40;;;;;;;10.77;71.14;101811.69;5012151;28;99269;-35
2022/05/29 06:20:27;;;;;;;2.17;0.30;;;;;;;10.72;70.64;101802.91;5012456;28;96472;-35
2022/05/29 06:22:52;;;;;;;0.22;0.10;;;;;;;10.81;69.88;101810.59;5012063;28;96789;-35
2022/05/29 06:25:18;;;;;;;0.30;0.20;;;;;;;10.85;70.37;101798.66;5011023;28;104385;-35
2022/05/29 06:27:44;;;;;;;2.15;0.30;;;;;;;10.87;69.57;101796.78;4993513;28;101115;-35
2022/05/29 06:30:14;;;;;;;0.10;0.10;;;;;;;10.89;70.17;101786.72;4993904;28;96569;-35
2022/05/29 06:32:40;;;;;;;0.80;0.32;;;;;;;10.96;70.01;101793.59;4993893;28;96891;-35
2022/05/29 06:35:08;;;;;;;0.38;0.20;;;;;;;10.98;69.62;101782.69;5010501;28;100747;-35
2022/05/29 06:37:33;;;;;;;0.15;0.10;;;;;;;11.15;70.16;101784.56;4993443;28;101808;-35
2022/05/29 06:39:59;;;;;;;2.55;0.28;;;;;;;11.27;69.06;101783.97;5012070;28;96688;-35
2022/05/29 06:42:24;;;;;;;0.28;0.20;;;;;;;11.42;69.46;101777.78;5012313;28;96910;-35
2022/05/29 06:44:50;;;;;;;0.70;0.30;;;;;;;11.74;70.97;101785.25;5011652;28;97939;-35
2022/05/29 06:47:15;;;;;;;0.52;0.30;;;;;;;11.89;69.53;101770.91;5011706;28;102515;-35
2022/05/29 06:49:41;;;;;;;0.30;0.13;;;;;;;12.15;69.14;101790.38;5011083;28;96531;-35
2022/05/29 06:52:08;;;;;;;0.60;0.40;;;;;;;12.10;68.73;101779.75;5010131;28;96907;-35
2022/05/29 06:54:35;;;;;;;0.40;0.20;;;;;;;12.04;68.89;101782.81;4993442;28;101526;-35
2022/05/29 06:57:01;;;;;;;0.20;0.20;;;;;;;12.02;69.56;101766.59;4993438;28;100855;-35
2022/05/29 06:59:27;;;;;;;1.35;0.40;;;;;;;12.06;70.02;101779.06;4993669;28;96711;-35
2022/05/29 07:07:21;;;;;;;0.30;0.25;;;;;;;12.18;69.87;101777.53;5010077;28;97061;-35
2022/05/29 07:09:46;;;;;;;0.80;0.43;;;;;;;12.09;69.58;101792.47;5011090;28;106800;-35
2022/05/29 07:12:31;;;;;;;5.10;0.52;;;;;;;12.00;70.48;101783.94;5011541;28;96908;-35
2022/05/29 07:15:03;;;;;;;0.43;0.40;;;;;;;12.00;70.39;101786.66;5010734;28;99701;-35
2022/05/29 07:17:29;;;;;;;0.60;0.40;;;;;;;11.90;70.35;101775.41;4996804;28;103060;-35
2022/05/29 07:20:01;;;;;;;2.25;0.40;;;;;;;11.89;70.85;101785.38;5014680;28;96631;-35
2022/05/29 07:22:29;;;;;;;2.45;0.30;;;;;;;11.84;70.60;101778.38;5015148;28;96780;-35
2022/05/29 07:24:54;;;;;;;0.70;0.47;;;;;;;11.89;71.79;101789.91;4996562;28;101450;-35
2022/05/29 07:27:19;;;;;;;0.60;0.25;;;;;;;11.82;70.45;101785.72;5014653;28;96522;-35
2022/05/29 07:29:45;;;;;;;2.35;0.38;;;;;;;11.83;70.06;101777.50;5014742;28;96841;-35
2022/05/29 07:32:11;;;;;;;1.40;0.52;;;;;;;11.84;70.90;101784.69;5015208;28;96852;-35
2022/05/29 07:34:37;;;;;;;0.73;0.43;;;;;;;11.81;72.52;101795.72;4996596;28;100491;-35
2022/05/29 07:37:09;;;;;;;3.08;0.68;;;;;;;11.87;71.78;101809.00;5014678;28;97365;-35
2022/05/29 07:39:36;;;;;;;;;;;;;;;11.84;71.99;101790.13;5014487;28;96517;-35
2022/05/29 07:44:45;;;;;;;0.10;0.10;;;;;;;11.75;71.16;101789.72;5025663;28;97088;-35
2022/05/29 07:47:11;;;;;;;1.00;0.30;;;;;;;11.71;70.35;101786.28;5013980;28;118523;-35
2022/05/29 07:49:39;;;;;;;2.53;0.43;;;;;;;11.63;71.34;101781.25;5014670;28;96485;-35
2022/05/29 07:52:04;;;;;;;0.32;0.30;;;;;;;11.58;71.93;101782.44;4996503;28;97041;-35
2022/05/29 07:54:30;;;;;;;2.22;0.30;;;;;;;11.55;71.11;101794.31;5014047;28;98962;-35
2022/05/29 07:56:55;;;;;;;0.40;0.22;;;;;;;11.53;71.89;101773.66;5013672;28;124078;-35
2022/05/29 07:59:21;;;;;;;0.60;0.10;;;;;;;11.65;71.77;101775.75;5013777;28;119008;-35
2022/05/29 08:01:47;;;;;;;1.25;0.25;;;;;;;11.75;70.60;101778.84;5014291;28;96754;-35
2022/05/29 08:04:14;;;;;;;0.82;0.30;;;;;;;11.74;70.66;101771.69;5012842;28;98782;-35
2022/05/29 08:06:39;;;;;;;0.77;0.40;;;;;;;11.85;72.50;101772.88;5014051;28;99099;-35
2022/05/29 08:09:05;;;;;;;0.95;0.40;;;;;;;11.96;70.82;101774.19;4996112;28;96673;-35
2022/05/29 08:11:30;;;;;;;0.82;0.20;;;;;;;12.02;70.92;101772.03;5013956;28;96908;-35
2022/05/29 08:13:56;;;;;;;0.90;0.32;;;;;;;12.08;70.25;101765.38;5013930;28;97933;-35
2022/05/29 08:16:22;;;;;;;0.40;0.25;;;;;;;12.20;72.01;101774.72;4995894;28;100931;-35
2022/05/29 08:18:47;;;;;;;0.75;0.25;;;;;;;12.29;71.31;101769.66;5013360;28;110612;-35
2022/05/29 08:21:13;;;;;;;1.65;0.40;;;;;;;12.45;70.08;101768.84;5013556;28;117785;-35
2022/05/29 08:23:38;;;;;;;4.05;0.57;;;;;;;12.47;71.42;101791.38;4995522;28;100794;-35
2022/05/29 08:31:31;;;;;;;3.10;0.28;;;;;;;11.79;72.55;101796.75;5014028;28;96681;-35
2022/05/29 08:33:57;;;;;;;1.27;0.20;;;;;;;11.70;71.89;101784.50;5013793;28;97412;-35
2022/05/29 08:36:26;;;;;;;3.10;0.32;;;;;;;11.61;72.18;101783.19;5013579;28;97817;-35
2022/05/29 08:38:54;;;;;;;3.60;0.40;;;;;;;11.60;72.94;101775.97;5013799;28;96570;-35
2022/05/29 08:41:33;;;;;;;0.10;0.10;;;;;;;11.56;73.16;101776.19;4995492;28;96803;-35
2022/05/29 08:44:04;;;;;;;0.50;0.20;;;;;;;11.57;72.60;101780.69;5011833;28;101414;-35
2022/05/29 08:46:49;;;;;;;0.85;0.30;;;;;;;11.58;72.99;101766.16;4995609;28;101223;-35
2022/05/29 08:49:22;;;;;;;0.52;0.15;;;;;;;11.64;72.88;101766.72;5013560;28;96547;-35
2022/05/29 08:52:10;;;;;;;3.67;0.55;;;;;;;11.76;73.93;101770.66;5013391;28;96729;-35
2022/05/29 08:54:54;;;;;;;0.52;0.40;;;;;;;11.91;72.75;101774.41;5012734;28;99103;-35
2022/05/29 08:57:31;;;;;;;3.28;0.40;;;;;;;12.07;73.88;101774.50;5013800;28;97281;-35
2022/05/29 09:00:01;;;;;;;1.65;0.68;;;;;;;12.18;72.51;101757.63;5013295;28;96668;-35
2022/05/29 09:02:55;;;;;;;3.55;0.77;;;;;;;12.46;73.20;101765.16;4995532;28;96828;-35
2022/05/29 09:05:41;;;;;;;0.25;0.20;;;;;;;12.85;72.44;101762.06;4994114;28;101327;-35
2022/05/29 09:08:13;;;;;;;0.90;0.65;;;;;;;13.09;73.55;101751.63;4994915;28;101083;-35
2022/05/29 09:10:46;;;;;;;1.35;0.52;;;;;;;13.26;71.54;101752.50;4995227;28;96550;-35
2022/05/29 09:13:19;;;;;;;0.55;0.35;;;;;;;13.25;72.00;101750.72;4995266;28;97018;-35
2022/05/29 09:15:50;;;;;;;1.33;0.57;;;;;;;13.42;70.48;101749.78;4994839;28;101611;-35
2022/05/29 09:18:30;;;;;;;6.97;0.60;;;;;;;13.40;71.07;101741.72;4995036;28;100941;-35
2022/05/29 09:21:08;;;;;;;0.95;0.45;;;;;;;13.20;71.57;101744.69;4994537;28;96969;-35
2022/05/29 09:23:40;;;;;;;0.30;0.20;;;;;;;13.13;70.45;101747.78;4994900;28;96934;-35
2022/05/29 09:26:09;;;;;;;0.38;0.30;;;;;;;13.05;71.71;101736.44;4994860;28;101061;-35
2022/05/29 09:28:40;;;;;;;0.10;0.10;;;;;;;13.09;70.61;101743.47;5012274;28;99452;-35
2022/05/29 09:31:07;;;;;;;0.80;0.20;;;;;;;13.53;70.40;101744.56;4994886;28;96531;-35
2022/05/29 09:33:34;;;;;;;0.77;0.20;;;;;;;13.75;69.02;101742.34;5011388;28;96753;-35
2022/05/29 09:36:24;;;;;;;0.17;0.13;;;;;;;13.87;69.23;101734.38;4994558;28;100842;-35
2022/05/29 09:38:55;;;;;;;0.30;0.15;;;;;;;13.91;68.02;101746.84;4993822;28;100779;-35
2022/05/29 09:41:27;;;;;;;0.82;0.10;;;;;;;13.89;67.84;101732.44;5012782;28;96579;-35
2022/05/29 09:44:10;;;;;;;0.15;0.00;;;;;;;14.01;67.92;101738.03;5013118;28;96571;-35
2022/05/29 09:46:39;;;;;;;0.10;0.10;;;;;;;14.19;67.65;101733.25;4993980;28;99073;-35
2022/05/29 09:52:00;;;;;;;0.55;0.13;;;;;;;14.45;65.63;101728.00;5013171;28;96461;-35
2022/05/29 09:54:32;;;;;;;0.20;0.10;;;;;;;14.75;65.36;101735.22;4994095;28;96935;-35
2022/05/29 09:57:08;;;;;;;0.93;0.10;;;;;;;14.98;64.51;101731.84;4994213;28;100765;-35
2022/05/29 09:59:38;;;;;;;0.10;0.03;;;;;;;15.13;65.72;101734.53;4993980;28;101182;-35
2022/05/29 10:02:05;;;;;;;1.08;0.10;;;;;;;15.20;64.38;101722.25;4994308;28;96618;-33
2022/05/29 10:04:39;;;;;;;0.80;0.20;;;;;;;15.07;64.44;101723.06;5000830;28;96831;-35
2022/05/29 10:07:21;;;;;;;0.73;0.20;;;;;;;15.05;64.11;101726.88;5030748;28;99327;-35
2022/05/29 10:10:03;;;;;;;0.10;0.10;;;;;;;15.19;64.43;101732.28;5032205;28;99712;-35
2022/05/29 10:12:36;;;;;;;0.00;0.00;;;;;;;15.56;64.54;101721.59;5031909;28;97026;-35
2022/05/29 10:15:02;;;;;;;0.13;0.08;;;;;;;15.82;63.46;101722.56;5047770;27;96771;-34
2022/05/29 10:17:27;;;;;;;0.10;0.10;;;;;;;15.49;63.76;101736.66;5032011;28;98799;-34
2022/05/29 10:19:52;;;;;;;0.70;0.27;;;;;;;14.94;64.78;101735.75;5032205;28;97334;-34
2022/05/29 10:22:32;;;;;;;1.02;0.55;;;;;;;14.59;65.94;101741.66;5031677;28;109996;-35
2022/05/29 10:24:58;;;;;;;1.02;0.17;;;;;;;14.18;66.58;101733.34;5014024;28;96838;-35
2022/05/29 10:27:51;;;;;;;0.80;0.17;;;;;;;13.97;67.74;101741.03;5030629;28;100978;-35
2022/05/29 10:30:32;;;;;;;1.17;0.30;;;;;;;13.79;68.64;101743.00;5030789;27;97176;-35
2022/05/29 10:33:02;;;;;;;0.10;0.10;;;;;;;13.66;68.36;101742.88;5032159;28;96658;-35
2022/05/29 10:35:35;;;;;;;0.20;0.10;;;;;;;13.49;68.27;101733.00;5014022;28;96691;-35
2022/05/29 10:38:18;;;;;;;1.48;0.20;;;;;;;13.64;69.55;101739.38;5029968;28;101789;-35
2022/05/29 10:40:49;;;;;;;0.45;0.10;;;;;;;13.89;69.16;101741.47;5031623;28;98894;-35
2022/05/29 10:43:59;;;;;;;1.27;0.38;;;;;;;13.98;68.88;101740.03;5031854;28;96550;-35
2022/05/29 10:47:04;;;;;;;2.35;0.65;;;;;;;14.13;68.68;101736.34;5029383;28;96846;-35
2022/05/29 10:49:37;;;;;;;1.45;0.43;;;;;;;14.09;68.46;101733.94;5009879;28;99398;-35
2022/05/29 10:52:12;;;;;;;2.25;0.25;;;;;;;13.96;68.33;101734.66;5016831;28;101106;-35
2022/05/29 10:55:08;;;;;;;2.88;0.50;;;;;;;13.80;69.06;101734.75;5035744;28;96541;-35
2022/05/29 10:57:42;;;;;;;3.13;0.38;;;;;;;13.70;69.05;101749.88;5017509;28;96705;-34
2022/05/29 11:00:26;;;;;;;2.85;0.30;;;;;;;13.62;69.02;101735.00;5035070;28;98270;-35
2022/05/29 11:05:58;;;;;;;0.47;0.30;;;;;;;13.73;69.58;101732.47;5017121;28;96652;-34
2022/05/29 11:08:54;;;;;;;0.10;0.10;;;;;;;13.76;69.24;101737.75;5013541;28;96795;-35
2022/05/29 11:11:57;;;;;;;2.70;0.80;;;;;;;13.72;68.61;101734.31;5014685;28;99156;-34
2022/05/29 11:14:39;;;;;;;1.30;0.40;;;;;;;13.60;67.47;101732.34;5014751;28;99458;-35
2022/05/29 11:17:30;;;;;;;2.78;0.43;;;;;;;13.63;67.57;101743.06;5015335;28;96644;-35
2022/05/29 11:20:20;;;;;;;1.88;0.45;;;;;;;14.03;66.74;101749.66;5014884;28;96641;-35
2022/05/29 11:23:08;;;;;;;0.75;0.30;;;;;;;14.26;64.98;101724.72;5014866;28;97977;-36
2022/05/29 11:25:42;;;;;;;0.40;0.20;;;;;;;14.34;63.73;101738.72;4997057;28;101024;-35
2022/05/29 11:28:26;;;;;;;0.40;0.17;;;;;;;14.17;63.43;101729.75;5014442;28;96695;-35
2022/05/29 11:31:10;;;;;;;0.45;0.03;;;;;;;14.05;63.90;101726.91;5014855;28;96669;-35
2022/05/29 11:33:53;;;;;;;0.13;0.10;;;;;;;13.99;63.51;101715.44;5013918;28;101808;-35
2022/05/29 11:36:37;;;;;;;3.15;0.20;;;;;;;14.17;63.75;101718.84;5014865;28;97922;-35
2022/05/29 11:39:31;;;;;;;1.13;0.30;;;;;;;14.28;63.64;101710.00;4996611;28;96600;-34
2022/05/29 11:42:06;;;;;;;1.88;0.38;;;;;;;14.26;62.92;101709.22;4996630;28;96807;-35
2022/05/29 11:44:41;;;;;;;1.67;0.30;;;;;;;14.30;62.58;101708.06;5013054;28;100709;-35
2022/05/29 11:53:36;;;;;;;0.85;0.20;;;;;;;14.27;61.23;101700.06;5013179;28;96670;-35
2022/05/29 11:56:08;;;;;;;0.68;0.30;;;;;;;14.15;61.53;101699.00;5000193;28;99544;-34
2022/05/29 11:58:47;;;;;;;1.08;0.30;;;;;;;14.11;61.31;101696.56;4996061;28;100920;-35
2022/05/29 12:01:18;;;;;;;1.27;0.30;;;;;;;14.11;62.01;101699.28;4995789;28;97152;-35
2022/05/29 12:04:01;;;;;;;1.65;0.20;;;;;;;13.96;60.14;101698.41;4995206;28;96756;-34
2022/05/29 12:06:30;;;;;;;2.45;0.40;;;;;;;13.93;60.22;101694.00;5014232;28;98200;-35
2022/05/29 12:09:28;;;;;;;2.17;0.45;;;;;;;13.88;59.79;101700.72;5013981;28;99204;-35
2022/05/29 12:12:01;;;;;;;0.93;0.45;;;;;;;13.87;60.20;101696.22;4999568;28;96937;-34
2022/05/29 12:14:51;;;;;;;1.50;0.40;;;;;;;13.85;59.81;101692.72;5014164;28;96628;-35
2022/05/29 12:17:24;;;;;;;1.23;0.22;;;;;;;13.90;60.33;101690.63;4995897;28;101446;-35